createdAt,value
2019-04-28T00:02:05.963Z,7.26
2019-04-28T00:04:35.412Z,6.99
2019-04-28T00:07:04.907Z,7.17
2019-04-28T00:09:34.346Z,7.21
2019-04-28T00:12:04.048Z,7.05
2019-04-28T00:14:33.539Z,7.15
2019-04-28T00:17:03.027Z,6.98
2019-04-28T00:19:32.481Z,7.02
2019-04-28T00:22:20.942Z,7.02
2019-04-28T00:25:01.619Z,6.93
2019-04-28T00:27:31.673Z,6.94
2019-04-28T00:30:02.080Z,7.01
2019-04-28T00:32:32.539Z,6.91
2019-04-28T00:35:02.478Z,6.88
2019-04-28T00:37:32.804Z,6.95
2019-04-28T00:40:02.250Z,6.85
2019-04-28T00:42:32.030Z,6.92
2019-04-28T00:45:01.919Z,6.80
2019-04-28T00:47:31.483Z,6.87
2019-04-28T00:50:02.114Z,7.06
2019-04-28T00:52:32.194Z,7.03
2019-04-28T00:55:01.659Z,7.05
2019-04-28T00:57:31.142Z,7.01
2019-04-28T01:00:02.465Z,7.17
2019-04-28T01:02:41.092Z,7.21
2019-04-28T01:05:11.594Z,7.43
2019-04-28T01:07:41.534Z,7.35
2019-04-28T01:10:11.837Z,7.19
2019-04-28T01:12:41.579Z,7.11
2019-04-28T01:15:13.844Z,7.08
2019-04-28T01:20:36.072Z,7.25
2019-04-28T01:23:05.576Z,7.16
2019-04-28T01:25:35.025Z,7.17
2019-04-28T01:28:04.525Z,7.04
2019-04-28T01:30:50.464Z,6.97
2019-04-28T01:33:37.772Z,6.92
2019-04-28T01:36:07.494Z,6.94
2019-04-28T01:38:37.170Z,7.00
2019-04-28T01:41:06.605Z,7.03
2019-04-28T01:43:36.312Z,7.08
2019-04-28T01:46:06.126Z,7.13
2019-04-28T01:48:35.571Z,7.17
2019-04-28T01:51:05.004Z,7.25
2019-04-28T01:53:34.847Z,7.22
2019-04-28T01:56:04.545Z,7.11
2019-04-28T01:58:33.976Z,7.16
2019-04-28T02:01:03.871Z,7.19
2019-04-28T02:03:33.305Z,7.29
2019-04-28T02:06:03.857Z,7.31
2019-04-28T02:08:33.609Z,7.29
2019-04-28T02:11:03.316Z,7.26
2019-04-28T02:13:32.775Z,7.37
2019-04-28T02:16:02.452Z,7.44
2019-04-28T02:18:32.472Z,7.41
2019-04-28T02:21:09.721Z,7.47
2019-04-28T02:23:39.667Z,7.50
2019-04-28T02:26:09.759Z,7.50
2019-04-28T02:28:40.721Z,7.44
2019-04-28T02:31:11.603Z,7.33
2019-04-28T02:33:41.099Z,7.36
2019-04-28T02:36:12.266Z,7.31
2019-04-28T02:38:41.752Z,7.32
2019-04-28T02:41:11.264Z,7.30
2019-04-28T02:43:41.014Z,7.40
2019-04-28T02:46:11.148Z,7.46
2019-04-28T02:48:40.579Z,7.44
2019-04-28T02:51:17.614Z,7.39
2019-04-28T02:53:47.052Z,7.42
2019-04-28T02:56:16.832Z,7.46
2019-04-28T02:58:46.295Z,7.45
2019-04-28T03:01:22.860Z,7.49
2019-04-28T03:03:47.140Z,7.43
2019-04-28T03:06:16.571Z,7.40
2019-04-28T03:08:46.039Z,7.32
2019-04-28T03:11:15.469Z,7.29
2019-04-28T03:13:45.199Z,7.38
2019-04-28T03:16:14.634Z,7.40
2019-04-28T03:18:44.076Z,7.28
2019-04-28T03:21:13.824Z,7.25
2019-04-28T03:23:43.270Z,7.31
2019-04-28T03:26:23.402Z,7.28
2019-04-28T03:28:57.283Z,7.31
2019-04-28T03:32:07.350Z,7.48
2019-04-28T03:34:03.942Z,7.47
2019-04-28T03:36:33.821Z,7.33
2019-04-28T03:39:04.821Z,7.28
2019-04-28T03:41:34.243Z,7.30
2019-04-28T03:44:04.543Z,7.18
2019-04-28T03:46:38.264Z,7.18
2019-04-28T03:49:10.805Z,7.16
2019-04-28T03:51:40.912Z,7.14
2019-04-28T03:54:10.716Z,7.23
2019-04-28T03:56:41.334Z,7.14
2019-04-28T03:59:11.193Z,7.11
2019-04-28T04:01:55.988Z,7.06
2019-04-28T04:04:12.367Z,7.05
2019-04-28T04:06:41.812Z,7.13
2019-04-28T04:09:11.563Z,7.18
2019-04-28T04:11:42.634Z,7.27
2019-04-28T04:14:30.997Z,7.13
2019-04-28T04:17:02.535Z,6.94
2019-04-28T04:19:33.626Z,6.87
2019-04-28T04:22:03.060Z,6.84
2019-04-28T04:24:32.760Z,6.83
2019-04-28T04:27:02.186Z,6.87
2019-04-28T04:29:31.690Z,6.92
2019-04-28T04:32:11.683Z,6.92
2019-04-28T04:34:32.822Z,6.85
2019-04-28T04:37:02.528Z,6.83
2019-04-28T04:39:31.963Z,6.87
2019-04-28T04:42:01.394Z,6.93
2019-04-28T04:44:31.144Z,6.87
2019-04-28T04:47:01.122Z,6.88
2019-04-28T04:49:31.630Z,6.99
2019-04-28T04:52:01.200Z,6.92
2019-04-28T04:54:32.791Z,6.97
2019-04-28T04:57:01.787Z,6.96
2019-04-28T04:59:32.872Z,6.85
2019-04-28T05:02:29.481Z,6.88
2019-04-28T05:04:54.518Z,6.80
2019-04-28T05:07:23.947Z,6.88
2019-04-28T05:09:53.638Z,6.94
2019-04-28T05:12:23.066Z,6.98
2019-04-28T05:14:52.511Z,7.06
2019-04-28T05:17:21.938Z,6.99
2019-04-28T05:19:51.654Z,6.99
2019-04-28T05:22:22.724Z,6.90
2019-04-28T05:24:57.110Z,6.98
2019-04-28T05:27:26.824Z,7.02
2019-04-28T05:29:57.017Z,6.98
2019-04-28T05:32:40.182Z,7.07
2019-04-28T05:35:00.113Z,7.13
2019-04-28T05:37:30.035Z,7.16
2019-04-28T05:40:00.901Z,7.14
2019-04-28T05:42:30.804Z,7.18
2019-04-28T05:45:00.259Z,7.11
2019-04-28T05:47:30.620Z,7.12
2019-04-28T05:50:10.746Z,7.10
2019-04-28T05:53:00.395Z,7.15
2019-04-28T05:55:47.076Z,7.17
2019-04-28T05:58:34.228Z,7.21
2019-04-28T06:01:06.156Z,7.26
2019-04-28T06:03:36.673Z,7.36
2019-04-28T06:06:06.355Z,7.34
2019-04-28T06:08:35.886Z,7.32
2019-04-28T06:11:23.019Z,7.37
2019-04-28T06:13:52.726Z,7.54
2019-04-28T06:16:22.419Z,7.51
2019-04-28T06:18:52.138Z,7.42
2019-04-28T06:21:21.838Z,7.46
2019-04-28T06:23:51.862Z,7.46
2019-04-28T06:26:21.559Z,7.42
2019-04-28T06:28:50.985Z,7.39
2019-04-28T06:31:20.478Z,7.46
2019-04-28T06:33:49.907Z,7.50
2019-04-28T06:36:19.685Z,7.56
2019-04-28T06:38:49.963Z,7.52
2019-04-28T06:41:19.397Z,7.55
2019-04-28T06:43:48.825Z,7.66
2019-04-28T06:46:18.257Z,7.65
2019-04-28T06:48:48.028Z,7.67
2019-04-28T06:51:17.461Z,7.66
2019-04-28T06:53:47.149Z,7.71
2019-04-28T06:56:16.585Z,7.77
2019-04-28T06:58:58.197Z,7.83
2019-04-28T07:01:17.175Z,7.90
2019-04-28T07:03:46.890Z,7.98
2019-04-28T07:06:16.558Z,7.95
2019-04-28T07:08:46.006Z,8.06
2019-04-28T07:11:15.714Z,8.20
2019-04-28T07:13:45.150Z,8.38
2019-04-28T07:16:14.582Z,8.57
2019-04-28T07:18:44.022Z,8.65
2019-04-28T07:21:31.048Z,8.79
2019-04-28T07:24:00.496Z,8.82
2019-04-28T07:26:29.925Z,8.93
2019-04-28T07:28:59.367Z,9.00
2019-04-28T07:31:29.115Z,8.85
2019-04-28T07:33:58.969Z,8.81
2019-04-28T07:36:28.675Z,8.87
2019-04-28T07:38:58.383Z,8.92
2019-04-28T07:41:27.813Z,9.00
2019-04-28T07:43:57.258Z,9.09
2019-04-28T07:46:26.699Z,9.07
2019-04-28T07:48:56.382Z,9.14
2019-04-28T07:51:27.753Z,9.19
2019-04-28T07:54:02.217Z,9.13
2019-04-28T07:56:30.242Z,9.19
2019-04-28T07:58:59.674Z,9.18
2019-04-28T08:01:29.454Z,9.11
2019-04-28T08:03:59.164Z,9.19
2019-04-28T08:06:28.864Z,9.23
2019-04-28T08:08:58.309Z,9.33
2019-04-28T08:11:27.744Z,9.38
2019-04-28T08:13:57.186Z,9.42
2019-04-28T08:16:26.618Z,9.18
2019-04-28T08:18:56.314Z,9.03
2019-04-28T08:21:25.750Z,8.87
2019-04-28T08:23:55.504Z,8.78
2019-04-28T08:26:24.936Z,8.78
2019-04-28T08:28:54.720Z,8.72
2019-04-28T08:31:25.796Z,8.68
2019-04-28T08:34:02.521Z,8.74
2019-04-28T08:36:28.555Z,8.65
2019-04-28T08:38:57.996Z,8.64
2019-04-28T08:41:27.423Z,8.62
2019-04-28T08:43:57.171Z,8.65
2019-04-28T08:46:26.597Z,8.74
2019-04-28T08:48:56.282Z,8.75
2019-04-28T08:51:25.712Z,8.72
2019-04-28T08:53:55.499Z,8.70
2019-04-28T08:56:24.935Z,8.87
2019-04-28T08:58:54.374Z,8.89
2019-04-28T09:01:24.110Z,9.00
2019-04-28T09:03:53.813Z,9.11
2019-04-28T09:06:23.527Z,9.07
2019-04-28T09:08:53.234Z,9.07
2019-04-28T09:11:22.914Z,9.15
2019-04-28T09:13:52.348Z,9.29
2019-04-28T09:16:21.781Z,9.19
2019-04-28T09:18:51.665Z,9.26
2019-04-28T09:21:21.101Z,9.44
2019-04-28T09:23:50.978Z,9.50
2019-04-28T09:26:20.686Z,9.67
2019-04-28T09:28:50.189Z,9.70
2019-04-28T09:31:19.899Z,9.81
2019-04-28T09:33:49.716Z,9.85
2019-04-28T09:36:19.146Z,9.90
2019-04-28T09:38:48.665Z,10.07
2019-04-28T09:41:18.103Z,10.20
2019-04-28T09:43:55.006Z,10.39
2019-04-28T09:46:28.770Z,10.52
2019-04-28T09:48:58.273Z,10.63
2019-04-28T09:51:27.734Z,10.71
2019-04-28T09:53:57.166Z,10.74
2019-04-28T09:56:27.333Z,10.76
2019-04-28T09:58:56.770Z,10.80
2019-04-28T10:01:26.545Z,11.10
2019-04-28T10:03:55.983Z,11.18
2019-04-28T10:06:25.498Z,11.34
2019-04-28T10:08:54.941Z,11.31
2019-04-28T10:11:30.737Z,11.42
2019-04-28T10:13:57.093Z,11.49
2019-04-28T10:16:26.580Z,11.31
2019-04-28T10:18:56.018Z,11.29
2019-04-28T10:21:25.465Z,11.05
2019-04-28T10:23:54.897Z,10.97
2019-04-28T10:26:24.663Z,10.75
2019-04-28T10:28:54.372Z,10.28
2019-04-28T10:31:24.082Z,9.96
2019-04-28T10:33:55.399Z,9.66
2019-04-28T10:36:25.449Z,9.36
2019-04-28T10:38:56.801Z,8.95
2019-04-28T10:41:33.881Z,9.04
2019-04-28T10:44:03.310Z,8.99
2019-04-28T10:46:34.380Z,8.97
2019-04-28T10:49:03.815Z,9.05
2019-04-28T10:51:33.526Z,9.12
2019-04-28T10:54:03.140Z,9.00
2019-04-28T10:56:32.572Z,9.01
2019-04-28T10:59:02.270Z,9.05
2019-04-28T11:01:31.689Z,9.02
2019-04-28T11:04:05.690Z,9.07
2019-04-28T11:06:38.400Z,9.00
2019-04-28T11:09:15.622Z,9.11
2019-04-28T11:11:45.067Z,9.28
2019-04-28T11:14:14.815Z,9.37
2019-04-28T11:16:44.562Z,9.52
2019-04-28T11:19:14.315Z,9.71
2019-04-28T11:21:43.765Z,10.05
2019-04-28T11:24:13.672Z,10.73
2019-04-28T11:26:43.120Z,11.82
2019-04-28T11:29:12.896Z,13.72
2019-04-28T11:31:42.596Z,14.08
2019-04-28T11:34:14.659Z,13.59
2019-04-28T11:36:45.012Z,13.25
2019-04-28T11:39:16.435Z,12.72
2019-04-28T11:41:45.952Z,12.06
2019-04-28T11:44:16.422Z,11.93
2019-04-28T11:46:45.942Z,11.94
2019-04-28T11:49:15.625Z,11.90
2019-04-28T11:51:45.384Z,11.68
2019-04-28T11:54:15.200Z,11.61
2019-04-28T11:56:44.906Z,11.13
2019-04-28T11:59:14.613Z,10.97
2019-04-28T12:01:44.055Z,10.74
2019-04-28T12:04:15.137Z,10.75
2019-04-28T12:06:44.584Z,10.78
2019-04-28T12:09:24.822Z,10.81
2019-04-28T12:11:55.914Z,10.42
2019-04-28T12:14:26.997Z,10.42
2019-04-28T12:17:14.586Z,10.42
2019-04-28T12:19:57.958Z,10.33
2019-04-28T12:22:27.670Z,10.29
2019-04-28T12:24:57.103Z,10.29
2019-04-28T12:27:26.883Z,10.36
2019-04-28T12:29:56.330Z,10.25
2019-04-28T12:32:26.097Z,10.36
2019-04-28T12:34:55.531Z,10.49
2019-04-28T12:37:24.981Z,10.51
2019-04-28T12:39:54.710Z,10.55
2019-04-28T12:42:24.155Z,10.55
2019-04-28T12:44:53.923Z,10.64
2019-04-28T12:47:23.635Z,10.70
2019-04-28T12:52:49.680Z,10.83
2019-04-28T12:55:19.390Z,10.76
2019-04-28T12:57:49.093Z,10.97
2019-04-28T13:00:32.363Z,11.09
2019-04-28T13:03:19.695Z,11.25
2019-04-28T13:06:02.305Z,11.61
2019-04-28T13:08:25.303Z,11.74
2019-04-28T13:10:54.736Z,12.09
2019-04-28T13:13:24.524Z,12.16
2019-04-28T13:15:53.964Z,12.36
2019-04-28T13:18:23.737Z,12.39
2019-04-28T13:20:53.449Z,12.44
2019-04-28T13:23:22.897Z,12.37
2019-04-28T13:25:52.335Z,12.17
2019-04-28T13:28:21.774Z,12.18
2019-04-28T13:30:51.212Z,12.12
2019-04-28T13:33:20.657Z,12.05
2019-04-28T13:35:50.374Z,12.15
2019-04-28T13:38:20.180Z,12.08
2019-04-28T13:40:49.863Z,12.13
2019-04-28T13:43:19.596Z,12.08
2019-04-28T13:45:49.033Z,12.07
2019-04-28T13:48:18.489Z,12.03
2019-04-28T13:50:49.108Z,12.00
2019-04-28T13:53:19.045Z,12.10
2019-04-28T13:55:48.306Z,12.25
2019-04-28T13:58:19.420Z,12.27
2019-04-28T14:00:57.630Z,12.31
2019-04-28T14:03:37.481Z,12.46
2019-04-28T14:06:08.553Z,12.61
2019-04-28T14:08:37.997Z,12.69
2019-04-28T14:11:07.693Z,12.66
2019-04-28T14:13:37.129Z,12.69
2019-04-28T14:16:06.572Z,12.65
2019-04-28T14:18:36.922Z,12.55
2019-04-28T14:21:08.020Z,12.67
2019-04-28T14:23:37.996Z,12.57
2019-04-28T14:26:07.687Z,12.55
2019-04-28T14:28:37.146Z,12.49
2019-04-28T14:31:06.843Z,12.51
2019-04-28T14:33:36.621Z,12.43
2019-04-28T14:36:06.052Z,12.45
2019-04-28T14:38:35.854Z,12.38
2019-04-28T14:41:05.570Z,12.39
2019-04-28T14:43:35.240Z,12.41
2019-04-28T14:46:04.750Z,12.57
2019-04-28T14:48:34.191Z,12.53
2019-04-28T14:51:03.710Z,12.61
2019-04-28T14:53:33.152Z,12.54
2019-04-28T14:56:02.609Z,12.49
2019-04-28T14:58:32.368Z,12.51
2019-04-28T15:01:03.461Z,12.49
2019-04-28T15:03:34.792Z,12.62
2019-04-28T15:06:06.289Z,12.70
2019-04-28T15:08:35.492Z,12.64
2019-04-28T15:11:10.647Z,12.72
2019-04-28T15:13:40.354Z,12.66
2019-04-28T15:16:09.799Z,12.53
2019-04-28T15:18:39.240Z,12.95
2019-04-28T15:21:08.770Z,13.06
2019-04-28T15:23:38.195Z,13.07
2019-04-28T15:26:07.971Z,13.00
2019-04-28T15:28:37.687Z,13.08
2019-04-28T15:31:07.496Z,13.21
2019-04-28T15:33:37.578Z,13.34
2019-04-28T15:36:07.346Z,13.18
2019-04-28T15:38:37.038Z,13.24
2019-04-28T15:41:20.626Z,13.25
2019-04-28T15:43:37.710Z,13.31
2019-04-28T15:46:07.495Z,13.47
2019-04-28T15:48:36.932Z,13.42
2019-04-28T15:51:06.516Z,13.45
2019-04-28T15:53:36.723Z,13.50
2019-04-28T15:56:14.115Z,13.41
2019-04-28T15:58:43.547Z,13.24
2019-04-28T16:01:13.241Z,13.16
2019-04-28T16:03:42.673Z,12.99
2019-04-28T16:06:12.118Z,13.03
2019-04-28T16:08:41.554Z,12.90
2019-04-28T16:11:11.003Z,12.88
2019-04-28T16:13:40.743Z,12.85
2019-04-28T16:16:10.208Z,12.79
2019-04-28T16:18:39.638Z,12.84
2019-04-28T16:21:09.330Z,12.80
2019-04-28T16:23:39.100Z,12.92
2019-04-28T16:26:08.592Z,13.02
2019-04-28T16:28:38.381Z,12.98
2019-04-28T16:31:07.822Z,12.77
2019-04-28T16:33:37.268Z,12.70
2019-04-28T16:36:06.720Z,12.63
2019-04-28T16:38:36.155Z,12.68
2019-04-28T16:41:05.853Z,12.58
2019-04-28T16:43:35.359Z,12.57
2019-04-28T16:46:05.117Z,12.58
2019-04-28T16:48:34.825Z,12.57
2019-04-28T16:51:04.533Z,12.52
2019-04-28T16:53:34.242Z,12.51
2019-04-28T16:56:12.415Z,12.50
2019-04-28T16:58:52.403Z,12.66
2019-04-28T17:01:21.908Z,12.53
2019-04-28T17:03:51.613Z,12.45
2019-04-28T17:06:21.338Z,12.40
2019-04-28T17:08:50.778Z,12.39
2019-04-28T17:11:20.467Z,12.40
2019-04-28T17:13:49.906Z,12.51
2019-04-28T17:16:19.350Z,12.53
2019-04-28T17:18:48.789Z,12.50
2019-04-28T17:21:18.493Z,12.42
2019-04-28T17:23:48.379Z,12.41
2019-04-28T17:26:18.076Z,12.44
2019-04-28T17:28:47.512Z,12.44
2019-04-28T17:31:17.290Z,12.37
2019-04-28T17:33:46.737Z,12.37
2019-04-28T17:36:16.185Z,12.35
2019-04-28T17:38:45.620Z,12.35
2019-04-28T17:41:15.409Z,12.33
2019-04-28T17:43:44.916Z,12.27
2019-04-28T17:46:14.365Z,12.33
2019-04-28T17:48:45.437Z,12.33
2019-04-28T17:51:15.122Z,12.22
2019-04-28T17:53:44.812Z,12.22
2019-04-28T17:56:14.582Z,12.23
2019-04-28T17:58:44.398Z,12.18
2019-04-28T18:01:15.745Z,12.36
2019-04-28T18:03:49.517Z,12.32
2019-04-28T18:06:26.204Z,12.30
2019-04-28T18:08:55.638Z,12.18
2019-04-28T18:11:25.328Z,12.24
2019-04-28T18:13:54.776Z,12.26
2019-04-28T18:16:44.195Z,12.07
2019-04-28T18:19:21.391Z,11.99
2019-04-28T18:21:50.844Z,12.09
2019-04-28T18:24:20.520Z,11.95
2019-04-28T18:26:49.954Z,11.95
2019-04-28T18:29:19.713Z,11.89
2019-04-28T18:31:56.491Z,11.79
2019-04-28T18:34:39.823Z,11.65
2019-04-28T18:37:11.997Z,11.64
2019-04-28T18:39:59.289Z,11.48
2019-04-28T18:42:40.480Z,11.52
2019-04-28T18:45:11.221Z,11.41
2019-04-28T18:47:40.669Z,11.36
2019-04-28T18:50:10.443Z,11.32
2019-04-28T18:52:39.894Z,11.24
2019-04-28T18:55:09.752Z,11.18
2019-04-28T18:57:39.458Z,11.13
2019-04-28T19:00:09.475Z,11.02
2019-04-28T19:02:38.937Z,11.03
2019-04-28T19:05:10.517Z,10.97
2019-04-28T19:07:41.652Z,10.95
2019-04-28T19:10:12.788Z,10.98
2019-04-28T19:13:00.138Z,10.90
2019-04-28T19:15:37.054Z,10.80
2019-04-28T19:18:08.472Z,10.75
2019-04-28T19:20:37.901Z,10.75
2019-04-28T19:23:07.676Z,10.82
2019-04-28T19:25:37.107Z,10.85
2019-04-28T19:28:06.887Z,10.88
2019-04-28T19:30:36.335Z,10.84
2019-04-28T19:33:06.005Z,10.82
2019-04-28T19:35:35.441Z,10.80
2019-04-28T19:38:04.965Z,10.75
2019-04-28T19:40:34.651Z,10.72
2019-04-28T19:43:04.456Z,10.67
2019-04-28T19:45:35.541Z,10.73
2019-04-28T19:48:05.289Z,10.54
2019-04-28T19:50:35.088Z,10.45
2019-04-28T19:53:04.774Z,10.52
2019-04-28T19:55:35.864Z,10.43
2019-04-28T19:58:09.646Z,10.43
2019-04-28T20:00:49.896Z,10.41
2019-04-28T20:03:19.396Z,10.37
2019-04-28T20:05:48.847Z,10.36
2019-04-28T20:08:18.618Z,10.32
2019-04-28T20:10:48.352Z,10.26
2019-04-28T20:13:17.781Z,10.24
2019-04-28T20:15:47.545Z,10.24
2019-04-28T20:18:16.977Z,10.26
2019-04-28T20:20:47.107Z,10.26
2019-04-28T20:23:16.873Z,10.23
2019-04-28T20:25:46.319Z,10.14
2019-04-28T20:28:16.002Z,10.02
2019-04-28T20:30:45.503Z,10.07
2019-04-28T20:33:15.192Z,10.02
2019-04-28T20:35:46.273Z,9.99
2019-04-28T20:38:17.704Z,9.95
2019-04-28T20:40:55.686Z,9.88
2019-04-28T20:43:26.691Z,9.76
2019-04-28T20:45:56.144Z,9.67
2019-04-28T20:48:25.568Z,9.65
2019-04-28T20:50:55.250Z,9.69
2019-04-28T20:53:24.949Z,9.54
2019-04-28T20:55:54.659Z,9.50
2019-04-28T20:58:24.098Z,9.48
2019-04-28T21:00:53.877Z,9.51
2019-04-28T21:03:23.544Z,9.52
2019-04-28T21:05:53.291Z,9.51
2019-04-28T21:08:22.995Z,9.54
2019-04-28T21:10:52.706Z,9.59
2019-04-28T21:13:22.517Z,9.58
2019-04-28T21:15:52.879Z,9.46
2019-04-28T21:18:22.576Z,9.40
2019-04-28T21:20:52.571Z,9.41
2019-04-28T21:23:22.065Z,9.43
2019-04-28T21:25:51.509Z,9.39
2019-04-28T21:28:20.940Z,9.44
2019-04-28T21:30:50.687Z,9.45
2019-04-28T21:33:20.123Z,9.34
2019-04-28T21:35:49.918Z,9.52
2019-04-28T21:38:19.355Z,9.46
2019-04-28T21:40:49.618Z,9.35
2019-04-28T21:43:20.980Z,9.34
2019-04-28T21:45:52.988Z,9.24
2019-04-28T21:48:38.807Z,9.08
2019-04-28T21:51:11.468Z,9.16
2019-04-28T21:53:39.477Z,9.20
2019-04-28T21:56:09.165Z,9.13
2019-04-28T21:58:38.891Z,9.29
2019-04-28T22:01:11.254Z,9.11
2019-04-28T22:03:40.756Z,9.07
2019-04-28T22:06:10.471Z,9.06
2019-04-28T22:08:39.904Z,8.96
2019-04-28T22:11:09.349Z,9.05
2019-04-28T22:13:38.857Z,8.98
2019-04-28T22:16:08.901Z,9.02
2019-04-28T22:18:38.331Z,8.97
2019-04-28T22:21:07.775Z,8.95
2019-04-28T22:23:39.184Z,8.87
2019-04-28T22:26:09.504Z,8.90
2019-04-28T22:28:38.925Z,8.92
2019-04-28T22:31:08.610Z,8.81
2019-04-28T22:33:38.403Z,8.68
2019-04-28T22:36:08.079Z,8.76
2019-04-28T22:38:37.760Z,8.78
2019-04-28T22:41:07.636Z,8.67
2019-04-28T22:43:37.337Z,8.70
2019-04-28T22:46:06.774Z,8.68
2019-04-28T22:48:36.239Z,8.59
2019-04-28T22:51:06.059Z,8.65
2019-04-28T22:53:37.413Z,8.67
2019-04-28T22:56:21.661Z,8.64
2019-04-28T22:58:52.812Z,8.63
2019-04-28T23:01:24.422Z,8.58
2019-04-28T23:04:11.884Z,8.49
2019-04-28T23:06:41.688Z,8.38
2019-04-28T23:09:13.206Z,8.35
2019-04-28T23:11:42.632Z,8.25
2019-04-28T23:14:12.080Z,8.08
2019-04-28T23:16:41.576Z,8.12
2019-04-28T23:19:12.663Z,8.17
2019-04-28T23:21:42.190Z,8.19
2019-04-28T23:24:11.901Z,8.20
2019-04-28T23:26:41.341Z,8.13
2019-04-28T23:29:10.779Z,8.17
2019-04-28T23:31:40.210Z,8.11
2019-04-28T23:34:09.653Z,8.13
2019-04-28T23:36:39.088Z,8.24
2019-04-28T23:39:09.749Z,8.21
2019-04-28T23:41:40.821Z,8.22
2019-04-28T23:44:10.268Z,8.28
2019-04-28T23:46:56.412Z,8.31
2019-04-28T23:49:30.195Z,8.15
2019-04-28T23:52:03.053Z,8.04
2019-04-28T23:54:34.130Z,8.05
2019-04-28T23:57:03.560Z,8.01
2019-04-28T23:59:33.065Z,8.06
